Cherry Point, North Carolina
Current Conditions -  °F | °C
As of 11:54 AM on Thursday 27 Nov 2014 (Local Time) from KNKT Reporting Station
Clear Clear  
Wind Chill: 14°   Ceiling: Unl
Heat Index: 14°   Visibility: 10mi
Dew Point:   Wind: 16mph
Humidity: 47%   Direction: 240°WSW
Pressure: 29.97"   Gusts: NA
Location:  34.9°N, 76.88°W
Report Text: KNKT 271654Z 24014KT 10SM CLR 14/03 A2997 RMK AO2 SLP144 T01390028 $
Loading
Personal Weather Stations






























Interactive Weather Map New forecast layout! Learn more

10-Day Weather Forecast

Advertisements
Track Severe Weather on mobile